C. Angelo — WCZ5866 — position and weather

sailwx.info

Track history (hours):
 
Tides and Currents Weather Stations Pressure Air Temp Water Temp Dewpoint Dewpoint Depression Visibility Wind Speed Wind Dir Waves Ship Positions

C. Angelo

Owner: G T 110 INC, NEW HAVEN, CT. More information available from US FCC via Universal Licensing System and Coast Guard Vessel Documentation Center.

Last reported at 2016-Feb-09 06:33 UTC. Time now 2016-Feb-09 07:31 UTC.
Position N 26°05' W 080°07'.

Length 30 m; draft 4 m.

Type: Tug. MMSI: 366988420.

Date/timePositionNaut miles runAvg speedWind from/ knotsBaromVisibWave heightAir tempDewpointWater temp
2016-Feb-09 06:33N 26°05' W 080°07'0 0.0
2016-Feb-09 05:33N 26°05' W 080°07'0 0.0
2016-Feb-09 04:33N 26°05' W 080°07'0 0.0
2016-Feb-09 03:33N 26°05' W 080°07'0 0.1
2016-Feb-09 02:33N 26°05' W 080°07'0 0.0
2016-Feb-09 01:33N 26°05' W 080°07'0 0.0
2016-Feb-09 00:33N 26°05' W 080°07'0 0.0
2016-Feb-08 23:33N 26°05' W 080°07'0 0.0
2016-Feb-08 22:33N 26°05' W 080°07'0 0.0
2016-Feb-08 21:33N 26°05' W 080°07'0 0.0
2016-Feb-08 20:33N 26°05' W 080°07'0 0.0
2016-Feb-08 19:33N 26°05' W 080°07'0 0.0
2016-Feb-08 18:33N 26°05' W 080°07'0 0.0
2016-Feb-08 17:33N 26°05' W 080°07'0 0.0
2016-Feb-08 16:33N 26°05' W 080°07'0 0.0
2016-Feb-08 15:33N 26°05' W 080°07'0 0.0
2016-Feb-08 14:33N 26°05' W 080°07'0 0.0
2016-Feb-08 13:33N 26°05' W 080°07'0 0.0
2016-Feb-08 12:33N 26°05' W 080°07'0 0.0
2016-Feb-08 11:33N 26°05' W 080°07'0 0.0
2016-Feb-08 10:33N 26°05' W 080°07'0 0.0
2016-Feb-08 09:33N 26°05' W 080°07'0 0.0
2016-Feb-08 08:33N 26°05' W 080°07'0 0.0
2016-Feb-08 07:33N 26°05' W 080°07'0 0.0
2016-Feb-08 06:33N 26°05' W 080°07'0 0.0
2016-Feb-08 05:33N 26°05' W 080°07'0 0.0
2016-Feb-08 04:33N 26°05' W 080°07'0 0.0
2016-Feb-08 03:33N 26°05' W 080°07'0 0.0
2016-Feb-08 02:33N 26°05' W 080°07'0 0.0
2016-Feb-08 01:33N 26°05' W 080°07'0 0.0
2016-Feb-08 00:33N 26°05' W 080°07'0 0.0
2016-Feb-07 23:33N 26°05' W 080°07'0 0.0
2016-Feb-07 22:33N 26°05' W 080°07'0 0.0
2016-Feb-07 21:33N 26°05' W 080°07'0 0.0
2016-Feb-07 20:33N 26°05' W 080°07'0 0.0
2016-Feb-07 19:33N 26°05' W 080°07'0 0.0
2016-Feb-07 18:33N 26°05' W 080°07'0 0.0
2016-Feb-07 17:33N 26°05' W 080°07'0 0.0
2016-Feb-07 16:33N 26°05' W 080°07'0 0.0
2016-Feb-07 15:33N 26°05' W 080°07'0 0.0
2016-Feb-07 14:33N 26°05' W 080°07'0 0.0
2016-Feb-07 13:33N 26°05' W 080°07'0 0.0
2016-Feb-07 12:33N 26°05' W 080°07'0 0.0
2016-Feb-07 11:33N 26°05' W 080°07'0 0.0
2016-Feb-07 10:33N 26°05' W 080°07'0 0.0
2016-Feb-07 09:33N 26°05' W 080°07'0 0.0
2016-Feb-07 08:33N 26°05' W 080°07'0 0.0
2016-Feb-07 07:33N 26°05' W 080°07'0 0.0
2016-Feb-07 06:33N 26°05' W 080°07'0 0.0
2016-Feb-07 05:33N 26°05' W 080°07'0 0.0
2016-Feb-07 04:33N 26°05' W 080°07'0 0.0
2016-Feb-07 03:33N 26°05' W 080°07'0 0.0
2016-Feb-07 02:33N 26°05' W 080°07'0 0.0
2016-Feb-07 01:33N 26°05' W 080°07'0 0.0
2016-Feb-07 00:33N 26°05' W 080°07'0 0.0
2016-Feb-06 23:33N 26°05' W 080°07'0 0.0
2016-Feb-06 22:33N 26°05' W 080°07'0 0.0
2016-Feb-06 21:33N 26°05' W 080°07'0 0.0
2016-Feb-06 20:33N 26°05' W 080°07'0 0.0
2016-Feb-06 19:33N 26°05' W 080°07'0 0.0
2016-Feb-05 15:08N 26°05' W 080°07'0 0.1
2016-Feb-05 14:33N 26°05' W 080°07'0 0.0
2016-Feb-05 13:33N 26°06' W 080°07'0 0.0
2016-Feb-05 12:33N 26°05' W 080°07'0 0.0
2016-Feb-05 11:33N 26°06' W 080°07'0 0.0
2016-Feb-05 10:33N 26°06' W 080°07'0 0.0
2016-Feb-05 09:33N 26°05' W 080°07'0 0.0
2016-Feb-05 08:33N 26°05' W 080°07'0 0.0
2016-Feb-05 07:33N 26°06' W 080°07'0 0.0
2016-Feb-05 03:21N 26°05' W 080°07'0 0.0
2016-Feb-05 02:33N 26°06' W 080°07'0 0.0
2016-Feb-05 01:33N 26°05' W 080°07'0 0.0
2016-Feb-04 23:10N 26°06' W 080°07'2 0.5
2016-Feb-04 19:29N 26°06' W 080°05'1 0.6
2016-Feb-04 18:26N 26°06' W 080°05'3 0.7
2016-Feb-04 13:31N 26°09' W 080°03'0 0.1
2016-Feb-04 08:32N 26°09' W 080°03'43 4.2
2016-Feb-03 22:22N 26°52' W 079°58'2 2.6
2016-Feb-03 21:32N 26°54' W 079°59'4 4.0
2016-Feb-03 20:33N 26°57' W 079°60'5 5.0
2016-Feb-03 19:33N 27°02' W 079°60'  
Track history (hours):
 
Tides and Currents Weather Stations Pressure Air Temp Water Temp Dewpoint Dewpoint Depression Visibility Wind Speed Wind Dir Waves Ship Positions

C. Angelo

Owner: G T 110 INC, NEW HAVEN, CT. More information available from US FCC via Universal Licensing System and Coast Guard Vessel Documentation Center.

Last reported at 2016-Feb-09 06:33 UTC. Time now 2016-Feb-09 07:31 UTC.
Position N 26°05' W 080°07'.

Length 30 m; draft 4 m.

Type: Tug. MMSI: 366988420.

Date/timePositionNaut miles runAvg speedWind from/ knotsBaromVisibWave heightAir tempDewpointWater temp
2016-Feb-09 06:33N 26°05' W 080°07'0 0.0
2016-Feb-09 05:33N 26°05' W 080°07'0 0.0
2016-Feb-09 04:33N 26°05' W 080°07'0 0.0
2016-Feb-09 03:33N 26°05' W 080°07'0 0.1
2016-Feb-09 02:33N 26°05' W 080°07'0 0.0
2016-Feb-09 01:33N 26°05' W 080°07'0 0.0
2016-Feb-09 00:33N 26°05' W 080°07'0 0.0
2016-Feb-08 23:33N 26°05' W 080°07'0 0.0
2016-Feb-08 22:33N 26°05' W 080°07'0 0.0
2016-Feb-08 21:33N 26°05' W 080°07'0 0.0
2016-Feb-08 20:33N 26°05' W 080°07'0 0.0
2016-Feb-08 19:33N 26°05' W 080°07'0 0.0
2016-Feb-08 18:33N 26°05' W 080°07'0 0.0
2016-Feb-08 17:33N 26°05' W 080°07'0 0.0
2016-Feb-08 16:33N 26°05' W 080°07'0 0.0
2016-Feb-08 15:33N 26°05' W 080°07'0 0.0
2016-Feb-08 14:33N 26°05' W 080°07'0 0.0
2016-Feb-08 13:33N 26°05' W 080°07'0 0.0
2016-Feb-08 12:33N 26°05' W 080°07'0 0.0
2016-Feb-08 11:33N 26°05' W 080°07'0 0.0
2016-Feb-08 10:33N 26°05' W 080°07'0 0.0
2016-Feb-08 09:33N 26°05' W 080°07'0 0.0
2016-Feb-08 08:33N 26°05' W 080°07'0 0.0
2016-Feb-08 07:33N 26°05' W 080°07'0 0.0
2016-Feb-08 06:33N 26°05' W 080°07'0 0.0
2016-Feb-08 05:33N 26°05' W 080°07'0 0.0
2016-Feb-08 04:33N 26°05' W 080°07'0 0.0
2016-Feb-08 03:33N 26°05' W 080°07'0 0.0
2016-Feb-08 02:33N 26°05' W 080°07'0 0.0
2016-Feb-08 01:33N 26°05' W 080°07'0 0.0
2016-Feb-08 00:33N 26°05' W 080°07'0 0.0
2016-Feb-07 23:33N 26°05' W 080°07'0 0.0
2016-Feb-07 22:33N 26°05' W 080°07'0 0.0
2016-Feb-07 21:33N 26°05' W 080°07'0 0.0
2016-Feb-07 20:33N 26°05' W 080°07'0 0.0
2016-Feb-07 19:33N 26°05' W 080°07'0 0.0
2016-Feb-07 18:33N 26°05' W 080°07'0 0.0
2016-Feb-07 17:33N 26°05' W 080°07'0 0.0
2016-Feb-07 16:33N 26°05' W 080°07'0 0.0
2016-Feb-07 15:33N 26°05' W 080°07'0 0.0
2016-Feb-07 14:33N 26°05' W 080°07'0 0.0
2016-Feb-07 13:33N 26°05' W 080°07'0 0.0
2016-Feb-07 12:33N 26°05' W 080°07'0 0.0
2016-Feb-07 11:33N 26°05' W 080°07'0 0.0
2016-Feb-07 10:33N 26°05' W 080°07'0 0.0
2016-Feb-07 09:33N 26°05' W 080°07'0 0.0
2016-Feb-07 08:33N 26°05' W 080°07'0 0.0
2016-Feb-07 07:33N 26°05' W 080°07'0 0.0
2016-Feb-07 06:33N 26°05' W 080°07'0 0.0
2016-Feb-07 05:33N 26°05' W 080°07'0 0.0
2016-Feb-07 04:33N 26°05' W 080°07'0 0.0
2016-Feb-07 03:33N 26°05' W 080°07'0 0.0
2016-Feb-07 02:33N 26°05' W 080°07'0 0.0
2016-Feb-07 01:33N 26°05' W 080°07'0 0.0
2016-Feb-07 00:33N 26°05' W 080°07'0 0.0
2016-Feb-06 23:33N 26°05' W 080°07'0 0.0
2016-Feb-06 22:33N 26°05' W 080°07'0 0.0
2016-Feb-06 21:33N 26°05' W 080°07'0 0.0
2016-Feb-06 20:33N 26°05' W 080°07'0 0.0
2016-Feb-06 19:33N 26°05' W 080°07'0 0.0
2016-Feb-05 15:08N 26°05' W 080°07'0 0.1
2016-Feb-05 14:33N 26°05' W 080°07'0 0.0
2016-Feb-05 13:33N 26°06' W 080°07'0 0.0
2016-Feb-05 12:33N 26°05' W 080°07'0 0.0
2016-Feb-05 11:33N 26°06' W 080°07'0 0.0
2016-Feb-05 10:33N 26°06' W 080°07'0 0.0
2016-Feb-05 09:33N 26°05' W 080°07'0 0.0
2016-Feb-05 08:33N 26°05' W 080°07'0 0.0
2016-Feb-05 07:33N 26°06' W 080°07'0 0.0
2016-Feb-05 03:21N 26°05' W 080°07'0 0.0
2016-Feb-05 02:33N 26°06' W 080°07'0 0.0
2016-Feb-05 01:33N 26°05' W 080°07'0 0.0
2016-Feb-04 23:10N 26°06' W 080°07'2 0.5
2016-Feb-04 19:29N 26°06' W 080°05'1 0.6
2016-Feb-04 18:26N 26°06' W 080°05'3 0.7
2016-Feb-04 13:31N 26°09' W 080°03'0 0.1
2016-Feb-04 08:32N 26°09' W 080°03'43 4.2
2016-Feb-03 22:22N 26°52' W 079°58'2 2.6
2016-Feb-03 21:32N 26°54' W 079°59'4 4.0
2016-Feb-03 20:33N 26°57' W 079°60'5 5.0
2016-Feb-03 19:33N 27°02' W 079°60'  

Dump ship's entire track history